Time;durP1;ratioP1;P1;durP2;ratioP2;P2;SDS_P1;SDS_P2;PMS_P1;PMS_P2;Temp;Humidity;BMP_temperature;BMP_pressure;BME280_temperature;BME280_humidity;BME280_pressure;Samples;Min_cycle;Max_cycle;Signal;HPM_P1;HPM_P2
2023/01/08 00:00:42;;;;;;;;;;;19.10;63.70;;;;;;5065145;28;43610;-75
2023/01/08 00:03:08;;;;;;;;;;;19.10;63.80;;;;;;5065638;28;42986;-75
2023/01/08 00:05:33;;;;;;;;;;;19.00;63.90;;;;;;5064502;28;42838;-75
2023/01/08 00:07:59;;;;;;;;;;;19.00;64.10;;;;;;5072700;28;44162;-75
2023/01/08 00:10:24;;;;;;;;;;;18.90;64.10;;;;;;5073067;28;43380;-76
2023/01/08 00:12:50;;;;;;;;;;;18.90;64.30;;;;;;5064071;28;43270;-75
2023/01/08 00:15:15;;;;;;;;;;;18.90;64.30;;;;;;5063939;28;43207;-75
2023/01/08 00:17:41;;;;;;;;;;;18.90;64.40;;;;;;5063471;28;43717;-75
2023/01/08 00:20:06;;;;;;;;;;;18.90;64.50;;;;;;5063766;28;43386;-76
2023/01/08 00:22:32;;;;;;;;;;;18.90;64.40;;;;;;5065049;28;42855;-75
2023/01/08 00:24:57;;;;;;;;;;;18.90;64.30;;;;;;5063266;28;44304;-75
2023/01/08 00:27:23;;;;;;;;;;;18.90;64.40;;;;;;5070859;28;42993;-75
2023/01/08 00:29:48;;;;;;;;;;;18.90;64.30;;;;;;5064133;28;43639;-76
2023/01/08 00:32:14;;;;;;;;;;;18.90;64.50;;;;;;5063871;28;42859;-75
2023/01/08 00:34:39;;;;;;;;;;;18.90;64.30;;;;;;5063851;28;42933;-75
2023/01/08 00:37:05;;;;;;;;;;;18.90;64.30;;;;;;5064488;28;42939;-75
2023/01/08 00:39:30;;;;;;;;;;;18.90;64.30;;;;;;5067586;28;43467;-75
2023/01/08 00:41:56;;;;;;;;;;;18.90;64.10;;;;;;5071754;28;42851;-75
2023/01/08 00:44:21;;;;;;;;;;;18.90;64.20;;;;;;5064130;28;42881;-76
2023/01/08 00:46:47;;;;;;;;;;;18.90;64.30;;;;;;5070065;28;43039;-75
2023/01/08 00:49:12;;;;;;;;;;;18.90;64.20;;;;;;5063847;28;43434;-76
2023/01/08 00:51:38;;;;;;;;;;;18.90;64.10;;;;;;5069090;28;42918;-76
2023/01/08 00:54:03;;;;;;;;;;;18.90;63.90;;;;;;5064424;28;43700;-75
2023/01/08 00:56:29;;;;;;;;;;;18.90;64.00;;;;;;5064185;28;43028;-75
2023/01/08 00:58:54;;;;;;;;;;;18.90;64.30;;;;;;5066923;28;42895;-75
2023/01/08 01:01:20;;;;;;;;;;;18.90;64.00;;;;;;5067406;28;43005;-76
2023/01/08 01:03:45;;;;;;;;;;;18.90;64.00;;;;;;5066980;28;43071;-75
2023/01/08 01:06:12;;;;;;;;;;;18.90;64.00;;;;;;5067815;28;42962;-76
2023/01/08 01:08:37;;;;;;;;;;;18.90;64.10;;;;;;5068746;27;43578;-75
2023/01/08 01:11:07;;;;;;;;;;;18.90;64.10;;;;;;5066741;28;43076;-76
2023/01/08 01:13:32;;;;;;;;;;;18.90;63.80;;;;;;5066980;28;43019;-75
2023/01/08 01:15:58;;;;;;;;;;;18.90;63.90;;;;;;5067226;28;42985;-76
2023/01/08 01:18:24;;;;;;;;;;;18.90;63.80;;;;;;5066530;28;43043;-76
2023/01/08 01:20:50;;;;;;;;;;;18.90;63.90;;;;;;5067491;28;43373;-75
2023/01/08 01:23:15;;;;;;;;;;;18.90;64.00;;;;;;5066946;28;43794;-76
2023/01/08 01:25:41;;;;;;;;;;;18.90;64.00;;;;;;5067145;28;43123;-75
2023/01/08 01:28:06;;;;;;;;;;;18.90;63.90;;;;;;5066585;28;43745;-75
2023/01/08 01:30:32;;;;;;;;;;;18.90;63.70;;;;;;5066671;28;43172;-76
2023/01/08 01:32:57;;;;;;;;;;;18.90;63.80;;;;;;5067134;28;43542;-76
2023/01/08 01:35:23;;;;;;;;;;;18.90;63.80;;;;;;5067068;28;42985;-75
2023/01/08 01:37:48;;;;;;;;;;;18.90;63.80;;;;;;5066921;28;42993;-76
2023/01/08 01:40:14;;;;;;;;;;;18.90;63.80;;;;;;5075871;28;43057;-76
2023/01/08 01:42:40;;;;;;;;;;;18.90;63.60;;;;;;5067478;28;43353;-76
2023/01/08 01:45:16;;;;;;;;;;;18.90;63.80;;;;;;5068744;28;42990;-76
2023/01/08 01:47:44;;;;;;;;;;;18.90;63.70;;;;;;5065905;28;42953;-76
2023/01/08 01:50:16;;;;;;;;;;;18.90;63.70;;;;;;5066176;28;42980;-77
2023/01/08 01:52:48;;;;;;;;;;;18.90;63.70;;;;;;5065018;28;44020;-76
2023/01/08 01:55:14;;;;;;;;;;;18.90;63.70;;;;;;5066372;28;43076;-76
2023/01/08 01:57:43;;;;;;;;;;;18.90;63.60;;;;;;5073586;28;42989;-76
2023/01/08 02:00:09;;;;;;;;;;;18.90;63.50;;;;;;5078576;27;43790;-77
2023/01/08 02:02:35;;;;;;;;;;;18.90;63.60;;;;;;5065564;28;43244;-76
2023/01/08 02:05:00;;;;;;;;;;;18.90;63.60;;;;;;5066313;28;43057;-76
2023/01/08 02:07:40;;;;;;;;;;;18.90;63.50;;;;;;5066611;28;42874;-76
2023/01/08 02:10:24;;;;;;;;;;;18.90;63.60;;;;;;5065679;28;42992;-75
2023/01/08 02:12:53;;;;;;;;;;;18.90;63.60;;;;;;5066731;28;43018;-74
2023/01/08 02:15:36;;;;;;;;;;;18.90;63.50;;;;;;5076262;27;43019;-75
2023/01/08 02:18:07;;;;;;;;;;;18.90;63.50;;;;;;5065786;28;42942;-75
2023/01/08 02:20:35;;;;;;;;;;;18.90;63.30;;;;;;5066097;28;42982;-75
2023/01/08 02:23:00;;;;;;;;;;;18.90;63.50;;;;;;5073261;28;42974;-76
2023/01/08 02:25:55;;;;;;;;;;;18.80;63.40;;;;;;5066713;28;43014;-75
2023/01/08 02:28:21;;;;;;;;;;;18.90;63.30;;;;;;5044015;28;43875;-75
2023/01/08 02:30:47;;;;;;;;;;;18.90;63.30;;;;;;5066167;28;42917;-75
2023/01/08 02:33:12;;;;;;;;;;;18.90;63.30;;;;;;5066299;28;42884;-76
2023/01/08 02:35:43;;;;;;;;;;;18.90;63.30;;;;;;5069447;28;42990;-75
2023/01/08 02:38:12;;;;;;;;;;;18.90;63.30;;;;;;5075087;27;43605;-75
2023/01/08 02:40:41;;;;;;;;;;;18.90;63.20;;;;;;5066147;28;43623;-76
2023/01/08 02:43:12;;;;;;;;;;;18.90;63.10;;;;;;5066225;28;43558;-76
2023/01/08 02:45:45;;;;;;;;;;;18.90;63.20;;;;;;5065653;28;43032;-75
2023/01/08 02:48:18;;;;;;;;;;;18.90;63.20;;;;;;5065506;28;42898;-74
2023/01/08 02:50:48;;;;;;;;;;;18.90;63.00;;;;;;5065138;28;43000;-75
2023/01/08 02:53:16;;;;;;;;;;;18.90;63.10;;;;;;5065984;28;43586;-74
2023/01/08 02:55:44;;;;;;;;;;;18.90;63.20;;;;;;5065671;28;43033;-76
2023/01/08 02:58:10;;;;;;;;;;;18.90;62.90;;;;;;5068602;28;42976;-76
2023/01/08 03:00:36;;;;;;;;;;;18.90;63.10;;;;;;5064702;27;42997;-75
2023/01/08 03:03:11;;;;;;;;;;;18.90;63.00;;;;;;5064997;28;43583;-74
2023/01/08 03:05:39;;;;;;;;;;;18.90;63.20;;;;;;5064893;28;42914;-75
2023/01/08 03:08:04;;;;;;;;;;;18.90;62.90;;;;;;5064976;28;43536;-75
2023/01/08 03:10:31;;;;;;;;;;;18.90;62.80;;;;;;5072254;28;43026;-74
2023/01/08 03:13:10;;;;;;;;;;;18.90;62.80;;;;;;5072196;28;43417;-76
2023/01/08 03:15:39;;;;;;;;;;;18.90;63.00;;;;;;5073785;27;42999;-75
2023/01/08 03:18:08;;;;;;;;;;;18.90;63.10;;;;;;5065775;28;42929;-76
2023/01/08 03:20:35;;;;;;;;;;;18.90;63.00;;;;;;5065265;28;42972;-74
2023/01/08 03:23:02;;;;;;;;;;;18.90;62.90;;;;;;5065546;28;42879;-75
2023/01/08 03:25:28;;;;;;;;;;;18.90;62.80;;;;;;5065629;28;43008;-75
2023/01/08 03:27:56;;;;;;;;;;;18.90;62.70;;;;;;5063475;28;44637;-76
2023/01/08 03:30:23;;;;;;;;;;;18.90;62.70;;;;;;5064939;28;43042;-75
2023/01/08 03:32:49;;;;;;;;;;;19.00;62.70;;;;;;5064821;28;42969;-75
2023/01/08 03:35:16;;;;;;;;;;;19.00;62.60;;;;;;5067899;28;43059;-75
2023/01/08 03:37:44;;;;;;;;;;;19.00;62.50;;;;;;5064083;28;43447;-75
2023/01/08 03:40:18;;;;;;;;;;;19.00;62.50;;;;;;5069666;28;42972;-76
2023/01/08 03:42:43;;;;;;;;;;;19.00;62.50;;;;;;5063818;28;43821;-75
2023/01/08 03:45:09;;;;;;;;;;;19.00;62.10;;;;;;5064013;28;42834;-76
2023/01/08 03:47:35;;;;;;;;;;;18.90;62.40;;;;;;5063580;28;44166;-75
2023/01/08 03:50:03;;;;;;;;;;;18.90;62.70;;;;;;5063759;28;42828;-76
2023/01/08 03:52:29;;;;;;;;;;;18.90;62.40;;;;;;5072273;28;42971;-75
2023/01/08 03:54:55;;;;;;;;;;;19.00;62.30;;;;;;5064156;28;43128;-75
2023/01/08 03:57:21;;;;;;;;;;;19.00;62.10;;;;;;5063539;28;44099;-75
2023/01/08 03:59:47;;;;;;;;;;;19.00;61.90;;;;;;5063548;28;43045;-75
2023/01/08 04:02:12;;;;;;;;;;;18.90;62.10;;;;;;5064441;28;43032;-75
2023/01/08 04:04:38;;;;;;;;;;;18.90;62.20;;;;;;5064615;28;43064;-75
2023/01/08 04:07:04;;;;;;;;;;;19.00;62.00;;;;;;5063479;28;42784;-75
2023/01/08 04:09:29;;;;;;;;;;;19.00;62.10;;;;;;5064410;28;43103;-75
2023/01/08 04:11:54;;;;;;;;;;;19.00;61.90;;;;;;5064290;28;44117;-75
2023/01/08 04:14:20;;;;;;;;;;;19.00;61.80;;;;;;5065021;28;42944;-75
2023/01/08 04:16:45;;;;;;;;;;;19.00;61.80;;;;;;5064353;28;43634;-75
2023/01/08 04:19:11;;;;;;;;;;;19.00;61.70;;;;;;5063848;28;43024;-75
2023/01/08 04:21:37;;;;;;;;;;;18.90;62.00;;;;;;5064142;28;43147;-76
2023/01/08 04:24:02;;;;;;;;;;;18.90;62.10;;;;;;5064639;28;42942;-75
2023/01/08 04:26:28;;;;;;;;;;;18.90;62.10;;;;;;5064496;28;43031;-76
2023/01/08 04:28:53;;;;;;;;;;;18.90;61.90;;;;;;5064636;28;43119;-75
2023/01/08 04:31:19;;;;;;;;;;;18.90;61.90;;;;;;5064206;28;44020;-75
2023/01/08 04:33:44;;;;;;;;;;;18.90;61.70;;;;;;5063397;28;42993;-75
2023/01/08 04:36:10;;;;;;;;;;;19.00;61.60;;;;;;5064064;28;42997;-75
2023/01/08 04:38:35;;;;;;;;;;;19.00;61.60;;;;;;5064490;28;43087;-75
2023/01/08 04:41:01;;;;;;;;;;;19.00;61.50;;;;;;5064231;28;43389;-75
2023/01/08 04:43:27;;;;;;;;;;;19.00;61.30;;;;;;5064323;28;43015;-75
2023/01/08 04:45:56;;;;;;;;;;;19.00;61.30;;;;;;5064120;28;43170;-75
2023/01/08 04:48:21;;;;;;;;;;;19.00;61.30;;;;;;5068277;28;43186;-75
2023/01/08 04:50:47;;;;;;;;;;;19.00;61.50;;;;;;5067210;28;43912;-74
2023/01/08 04:53:12;;;;;;;;;;;19.00;61.50;;;;;;5064851;28;43034;-75
2023/01/08 04:55:38;;;;;;;;;;;19.00;61.50;;;;;;5064564;28;43551;-75
2023/01/08 04:58:03;;;;;;;;;;;19.00;61.40;;;;;;5063826;28;43123;-75
2023/01/08 05:00:29;;;;;;;;;;;19.00;61.30;;;;;;5062885;28;44256;-74
2023/01/08 05:02:55;;;;;;;;;;;19.00;61.30;;;;;;5064170;28;42921;-75
2023/01/08 05:05:20;;;;;;;;;;;19.00;61.30;;;;;;5063895;28;43791;-75
2023/01/08 05:07:46;;;;;;;;;;;19.00;61.30;;;;;;5063992;28;42866;-74
2023/01/08 05:10:11;;;;;;;;;;;19.00;61.30;;;;;;5063521;28;42976;-75
2023/01/08 05:12:36;;;;;;;;;;;19.00;61.30;;;;;;5063691;28;42998;-75
2023/01/08 05:15:02;;;;;;;;;;;19.00;61.20;;;;;;5062772;28;42956;-74
2023/01/08 05:17:28;;;;;;;;;;;19.00;61.30;;;;;;5063329;28;43010;-75
2023/01/08 05:19:53;;;;;;;;;;;19.00;61.30;;;;;;5062721;28;43563;-75
2023/01/08 05:22:19;;;;;;;;;;;19.00;61.30;;;;;;5063649;28;42950;-76
2023/01/08 05:24:44;;;;;;;;;;;19.00;61.30;;;;;;5063328;28;43336;-75
2023/01/08 05:27:10;;;;;;;;;;;19.00;61.30;;;;;;5063345;28;42940;-76
2023/01/08 05:29:35;;;;;;;;;;;19.00;61.30;;;;;;5063028;28;42935;-76
2023/01/08 05:32:00;;;;;;;;;;;18.90;61.30;;;;;;5066887;28;43146;-76
2023/01/08 05:34:26;;;;;;;;;;;18.90;61.60;;;;;;5072855;28;43782;-78
2023/01/08 05:36:51;;;;;;;;;;;18.80;61.70;;;;;;5063911;28;43051;-78
2023/01/08 05:39:17;;;;;;;;;;;18.80;61.80;;;;;;5063455;28;43172;-76
2023/01/08 05:41:42;;;;;;;;;;;18.80;61.80;;;;;;5063356;28;42938;-79
2023/01/08 05:44:09;;;;;;;;;;;18.80;61.80;;;;;;5064017;28;42936;-76
2023/01/08 05:46:34;;;;;;;;;;;18.70;61.80;;;;;;5066774;28;43010;-79
2023/01/08 05:49:00;;;;;;;;;;;18.70;61.90;;;;;;5067199;28;42839;-78
2023/01/08 05:51:25;;;;;;;;;;;18.70;62.40;;;;;;5067760;28;42947;-79
2023/01/08 05:53:51;;;;;;;;;;;18.70;61.90;;;;;;5066805;28;42898;-76
2023/01/08 05:56:16;;;;;;;;;;;18.70;61.90;;;;;;5066716;28;43421;-75
2023/01/08 05:58:42;;;;;;;;;;;18.70;61.80;;;;;;5066562;28;43584;-75
2023/01/08 06:01:14;;;;;;;;;;;18.70;61.80;;;;;;5066280;28;42918;-76
2023/01/08 06:03:40;;;;;;;;;;;18.70;61.80;;;;;;5065378;28;42907;-76
2023/01/08 06:06:06;;;;;;;;;;;18.70;61.80;;;;;;5066077;28;42934;-79
2023/01/08 06:08:32;;;;;;;;;;;18.70;61.80;;;;;;5069096;28;44039;-80
2023/01/08 06:10:58;;;;;;;;;;;18.70;62.00;;;;;;5070770;28;42949;-77
2023/01/08 06:13:24;;;;;;;;;;;18.70;62.00;;;;;;5067439;28;44216;-76
2023/01/08 06:15:49;;;;;;;;;;;18.70;61.90;;;;;;5067214;28;43000;-77
2023/01/08 06:18:15;;;;;;;;;;;18.70;61.80;;;;;;5067692;28;43139;-80
2023/01/08 06:20:40;;;;;;;;;;;18.70;61.50;;;;;;5067073;28;43059;-81
2023/01/08 06:23:07;;;;;;;;;;;18.70;61.40;;;;;;5065717;28;43240;-76
2023/01/08 06:25:33;;;;;;;;;;;18.70;61.50;;;;;;5068611;28;43021;-80
2023/01/08 06:27:58;;;;;;;;;;;18.70;61.50;;;;;;5064979;28;43976;-76
2023/01/08 06:30:24;;;;;;;;;;;18.70;61.60;;;;;;5069241;28;43126;-77
2023/01/08 06:32:54;;;;;;;;;;;18.70;61.60;;;;;;5063137;28;42927;-74
2023/01/08 06:35:19;;;;;;;;;;;18.70;61.70;;;;;;5069575;27;42985;-78
2023/01/08 06:37:44;;;;;;;;;;;18.70;61.70;;;;;;5064757;28;43580;-75
2023/01/08 06:40:10;;;;;;;;;;;18.70;61.70;;;;;;5067666;28;43241;-73
2023/01/08 06:42:36;;;;;;;;;;;18.70;61.90;;;;;;5064954;28;43111;-78
2023/01/08 06:45:01;;;;;;;;;;;18.70;62.40;;;;;;5065838;28;43045;-78
2023/01/08 06:47:27;;;;;;;;;;;18.70;61.90;;;;;;5064033;28;43699;-79
2023/01/08 06:49:52;;;;;;;;;;;18.70;61.90;;;;;;5065828;28;43150;-73
2023/01/08 06:52:18;;;;;;;;;;;18.70;61.90;;;;;;5064265;28;43722;-80
2023/01/08 06:54:43;;;;;;;;;;;18.70;62.00;;;;;;5070482;27;43057;-80
2023/01/08 06:57:09;;;;;;;;;;;18.70;62.00;;;;;;5070270;28;43876;-79
2023/01/08 06:59:34;;;;;;;;;;;18.70;62.00;;;;;;5065281;28;42931;-80
2023/01/08 07:02:00;;;;;;;;;;;18.70;62.00;;;;;;5065135;28;43739;-78
2023/01/08 07:04:25;;;;;;;;;;;18.70;62.10;;;;;;5065270;28;43044;-77
2023/01/08 07:06:51;;;;;;;;;;;18.70;62.10;;;;;;5066770;28;43706;-78
2023/01/08 07:09:16;;;;;;;;;;;18.70;62.10;;;;;;5068213;28;42964;-79
2023/01/08 07:11:42;;;;;;;;;;;18.70;62.10;;;;;;5068303;28;43044;-80
2023/01/08 07:14:07;;;;;;;;;;;18.60;62.10;;;;;;5069976;28;42946;-81
2023/01/08 07:16:33;;;;;;;;;;;18.70;62.10;;;;;;5070445;28;43092;-76
2023/01/08 07:18:59;;;;;;;;;;;18.70;62.10;;;;;;5065313;28;43110;-81
2023/01/08 07:21:24;;;;;;;;;;;18.70;62.20;;;;;;5068074;28;43894;-81
2023/01/08 07:23:50;;;;;;;;;;;18.70;62.20;;;;;;5069659;28;43343;-79
2023/01/08 07:26:16;;;;;;;;;;;18.70;62.30;;;;;;5072986;28;43362;-77
2023/01/08 07:28:41;;;;;;;;;;;18.70;62.30;;;;;;5072039;28;43059;-80
2023/01/08 07:31:07;;;;;;;;;;;18.70;62.20;;;;;;5067152;28;43769;-76
2023/01/08 07:33:33;;;;;;;;;;;18.70;62.30;;;;;;5064271;28;43073;-81
2023/01/08 07:35:58;;;;;;;;;;;18.60;62.30;;;;;;5069488;28;43528;-76
2023/01/08 07:38:24;;;;;;;;;;;18.60;62.40;;;;;;5065995;28;43223;-80
2023/01/08 07:40:49;;;;;;;;;;;18.60;62.40;;;;;;5064143;28;43013;-81
2023/01/08 07:43:15;;;;;;;;;;;18.60;62.40;;;;;;5063437;28;43057;-80
2023/01/08 07:45:41;;;;;;;;;;;18.70;58.70;;;;;;5065649;28;43116;-80
2023/01/08 07:48:09;;;;;;;;;;;18.70;55.50;;;;;;5064085;28;43096;-74
2023/01/08 07:50:35;;;;;;;;;;;18.50;51.90;;;;;;5065368;28;42961;-78
2023/01/08 07:53:01;;;;;;;;;;;18.20;51.00;;;;;;5064393;28;43051;-80
2023/01/08 07:55:27;;;;;;;;;;;18.00;50.60;;;;;;5063234;28;42894;-77
2023/01/08 07:57:52;;;;;;;;;;;17.80;50.30;;;;;;5064478;28;42984;-81
2023/01/08 08:00:18;;;;;;;;;;;17.70;50.40;;;;;;5062419;28;43657;-74
2023/01/08 08:02:44;;;;;;;;;;;17.60;50.40;;;;;;5064681;28;43044;-79
2023/01/08 08:05:09;;;;;;;;;;;17.50;50.30;;;;;;5065309;28;43005;-79
2023/01/08 08:07:35;;;;;;;;;;;17.40;50.90;;;;;;5064446;27;43026;-75
2023/01/08 08:10:01;;;;;;;;;;;17.40;49.70;;;;;;5061764;28;44228;-74
2023/01/08 08:12:26;;;;;;;;;;;17.20;49.60;;;;;;5062080;28;43180;-78
2023/01/08 08:14:52;;;;;;;;;;;17.20;50.30;;;;;;5059580;28;43579;-75
2023/01/08 08:17:17;;;;;;;;;;;17.20;49.70;;;;;;5063657;28;42945;-77
2023/01/08 08:19:44;;;;;;;;;;;17.20;49.50;;;;;;5068404;28;44001;-76
2023/01/08 08:22:10;;;;;;;;;;;17.20;49.40;;;;;;5064491;28;43014;-75
2023/01/08 08:24:35;;;;;;;;;;;17.20;49.00;;;;;;5063941;28;43575;-74
2023/01/08 08:27:01;;;;;;;;;;;17.10;48.80;;;;;;5064501;28;42956;-75
2023/01/08 08:29:26;;;;;;;;;;;16.90;48.50;;;;;;5066419;28;44103;-75
2023/01/08 08:31:52;;;;;;;;;;;16.90;48.70;;;;;;5064359;28;43129;-76
2023/01/08 08:34:19;;;;;;;;;;;16.90;48.50;;;;;;5064718;28;43722;-75
2023/01/08 08:36:45;;;;;;;;;;;16.80;49.20;;;;;;5067704;28;43081;-73
2023/01/08 08:39:10;;;;;;;;;;;16.90;49.40;;;;;;5065114;28;42757;-74
2023/01/08 08:41:36;;;;;;;;;;;17.00;49.80;;;;;;5064969;28;43064;-76
2023/01/08 08:44:01;;;;;;;;;;;17.10;50.40;;;;;;5059814;28;43393;-76
2023/01/08 08:46:27;;;;;;;;;;;17.20;52.00;;;;;;5062268;28;43646;-72
2023/01/08 08:48:53;;;;;;;;;;;17.40;52.80;;;;;;5063089;28;43069;-73
2023/01/08 08:51:18;;;;;;;;;;;17.40;53.20;;;;;;5062332;28;43101;-74
2023/01/08 08:53:44;;;;;;;;;;;17.50;53.50;;;;;;5063980;28;43011;-73
2023/01/08 08:56:09;;;;;;;;;;;17.60;53.80;;;;;;5064773;28;42958;-73
2023/01/08 08:58:35;;;;;;;;;;;17.70;54.30;;;;;;5065085;28;43194;-72
2023/01/08 09:01:02;;;;;;;;;;;17.70;54.40;;;;;;5066236;28;43022;-76
2023/01/08 09:03:28;;;;;;;;;;;17.80;54.90;;;;;;5063918;28;43408;-73
2023/01/08 09:05:53;;;;;;;;;;;17.80;55.50;;;;;;5063186;28;44189;-77
2023/01/08 09:08:19;;;;;;;;;;;17.90;55.90;;;;;;5063470;28;43168;-76
2023/01/08 09:10:45;;;;;;;;;;;17.90;56.10;;;;;;5062851;28;43002;-75
2023/01/08 09:13:10;;;;;;;;;;;18.00;56.40;;;;;;5066251;28;43049;-73
2023/01/08 09:15:36;;;;;;;;;;;18.00;56.60;;;;;;5062809;28;43059;-75
2023/01/08 09:18:02;;;;;;;;;;;18.00;56.80;;;;;;5062671;28;43476;-75
2023/01/08 09:20:27;;;;;;;;;;;18.10;57.00;;;;;;5070095;28;43003;-74
2023/01/08 09:22:53;;;;;;;;;;;18.10;57.20;;;;;;5066148;28;43065;-75
2023/01/08 09:25:19;;;;;;;;;;;18.20;57.40;;;;;;5066571;28;43026;-74
2023/01/08 09:27:44;;;;;;;;;;;18.20;57.60;;;;;;5073805;28;43258;-75
2023/01/08 09:30:10;;;;;;;;;;;18.20;57.70;;;;;;5066170;28;43232;-75
2023/01/08 09:32:37;;;;;;;;;;;18.30;57.90;;;;;;5069270;28;43123;-74
2023/01/08 09:35:02;;;;;;;;;;;18.30;58.00;;;;;;5066210;28;43316;-74
2023/01/08 09:37:28;;;;;;;;;;;18.30;58.20;;;;;;5071503;28;43580;-75
2023/01/08 09:39:53;;;;;;;;;;;18.30;58.30;;;;;;5071595;28;42952;-75
2023/01/08 09:42:22;;;;;;;;;;;18.30;58.40;;;;;;5065560;28;43551;-76
2023/01/08 09:44:49;;;;;;;;;;;18.40;58.60;;;;;;5071894;27;42977;-74
2023/01/08 09:47:25;;;;;;;;;;;18.40;58.70;;;;;;5069115;28;43171;-76
2023/01/08 09:49:53;;;;;;;;;;;18.40;58.80;;;;;;5067766;28;43197;-72
2023/01/08 09:52:18;;;;;;;;;;;18.50;59.00;;;;;;5070418;27;43004;-73
2023/01/08 09:54:44;;;;;;;;;;;18.50;59.00;;;;;;5065692;28;43167;-72
2023/01/08 09:57:15;;;;;;;;;;;17.50;58.70;;;;;;5072283;28;44146;-73
2023/01/08 09:59:40;;;;;;;;;;;18.50;59.30;;;;;;5066992;28;43175;-73
2023/01/08 10:02:12;;;;;;;;;;;18.50;59.30;;;;;;5068486;28;43692;-73
2023/01/08 10:04:38;;;;;;;;;;;18.50;59.40;;;;;;5063905;28;42874;-73
2023/01/08 10:07:20;;;;;;;;;;;18.60;59.60;;;;;;5073123;28;43677;-73
2023/01/08 10:09:48;;;;;;;;;;;18.50;59.60;;;;;;5067414;28;43045;-73
2023/01/08 10:12:13;;;;;;;;;;;18.60;59.80;;;;;;5067506;28;43350;-74
2023/01/08 10:14:46;;;;;;;;;;;18.60;59.80;;;;;;5068870;28;43194;-72
2023/01/08 10:17:19;;;;;;;;;;;18.60;59.90;;;;;;5065429;28;42987;-73
2023/01/08 10:19:44;;;;;;;;;;;18.60;60.00;;;;;;5070290;28;42957;-74
2023/01/08 10:22:18;;;;;;;;;;;18.60;60.10;;;;;;5070392;28;42862;-72
2023/01/08 10:24:44;;;;;;;;;;;18.60;60.20;;;;;;5070825;28;43105;-73
2023/01/08 10:27:12;;;;;;;;;;;18.60;60.20;;;;;;5065940;27;43025;-73
2023/01/08 10:29:41;;;;;;;;;;;18.70;60.40;;;;;;5066048;28;42895;-72
2023/01/08 10:32:08;;;;;;;;;;;18.70;60.50;;;;;;5065068;28;43660;-72
2023/01/08 10:34:42;;;;;;;;;;;18.70;60.50;;;;;;5070724;28;43153;-72
2023/01/08 10:37:28;;;;;;;;;;;18.70;60.60;;;;;;5063542;28;43171;-73
2023/01/08 10:40:00;;;;;;;;;;;18.70;60.70;;;;;;5068233;27;43701;-73
2023/01/08 10:42:26;;;;;;;;;;;18.70;60.70;;;;;;5065871;27;45464;-73
2023/01/08 10:44:59;;;;;;;;;;;18.70;60.80;;;;;;5063694;28;43054;-73
2023/01/08 10:47:27;;;;;;;;;;;18.70;60.90;;;;;;5064110;28;43505;-73
2023/01/08 10:49:53;;;;;;;;;;;18.70;61.00;;;;;;5066898;28;42985;-73
2023/01/08 10:52:31;;;;;;;;;;;18.70;61.00;;;;;;5069006;28;45345;-73
2023/01/08 10:54:57;;;;;;;;;;;18.70;61.00;;;;;;5074573;27;43277;-72
2023/01/08 10:57:23;;;;;;;;;;;18.80;61.20;;;;;;5067800;28;42992;-70
2023/01/08 10:59:48;;;;;;;;;;;18.80;61.30;;;;;;5064431;28;43057;-73
2023/01/08 11:02:22;;;;;;;;;;;18.80;61.30;;;;;;5071742;28;43489;-72
2023/01/08 11:04:50;;;;;;;;;;;18.80;61.60;;;;;;5067609;28;43064;-73
2023/01/08 11:07:19;;;;;;;;;;;18.80;61.60;;;;;;5066287;28;42992;-72
2023/01/08 11:09:48;;;;;;;;;;;18.80;61.70;;;;;;5067447;28;43171;-73
2023/01/08 11:12:32;;;;;;;;;;;18.80;61.70;;;;;;5064140;28;43942;-74
2023/01/08 11:14:58;;;;;;;;;;;18.80;61.80;;;;;;5071886;28;43028;-73
2023/01/08 11:17:24;;;;;;;;;;;18.90;61.90;;;;;;5069233;28;42954;-72
2023/01/08 11:19:50;;;;;;;;;;;18.90;61.90;;;;;;5061592;28;43162;-72
2023/01/08 11:22:19;;;;;;;;;;;18.90;62.00;;;;;;5066080;28;43176;-72
2023/01/08 11:24:46;;;;;;;;;;;18.90;61.90;;;;;;5066430;28;42976;-72
2023/01/08 11:27:11;;;;;;;;;;;18.90;62.00;;;;;;5066053;28;43853;-71
2023/01/08 11:29:44;;;;;;;;;;;18.90;61.90;;;;;;5063127;28;43756;-74
2023/01/08 11:32:18;;;;;;;;;;;18.90;62.20;;;;;;5063578;28;43496;-72
2023/01/08 11:34:53;;;;;;;;;;;18.90;62.10;;;;;;5064790;28;43300;-73
2023/01/08 11:37:21;;;;;;;;;;;18.90;62.20;;;;;;5066003;28;43611;-71
2023/01/08 11:39:46;;;;;;;;;;;18.90;62.10;;;;;;5068992;27;42983;-71
2023/01/08 11:42:18;;;;;;;;;;;18.90;62.10;;;;;;5067656;28;42910;-72
2023/01/08 11:44:57;;;;;;;;;;;18.90;62.10;;;;;;5079310;28;43058;-72
2023/01/08 11:47:34;;;;;;;;;;;18.90;62.10;;;;;;5065655;28;43154;-72
2023/01/08 11:50:13;;;;;;;;;;;18.90;62.10;;;;;;5065990;28;43128;-70
2023/01/08 11:52:48;;;;;;;;;;;18.90;62.10;;;;;;5064461;28;43694;-74
2023/01/08 11:55:23;;;;;;;;;;;18.90;62.30;;;;;;5069072;28;43104;-73
2023/01/08 11:58:03;;;;;;;;;;;18.90;62.30;;;;;;5063263;28;43663;-74
2023/01/08 12:00:29;;;;;;;;;;;18.90;60.90;;;;;;5071062;28;42950;-74
2023/01/08 12:02:56;;;;;;;;;;;18.90;57.00;;;;;;5069665;28;42930;-75
2023/01/08 12:05:39;;;;;;;;;;;18.80;56.30;;;;;;5067510;28;43143;-75
2023/01/08 12:08:14;;;;;;;;;;;18.70;56.00;;;;;;5066591;28;43674;-75
2023/01/08 12:10:39;;;;;;;;;;;18.70;55.60;;;;;;5064129;28;43260;-75
2023/01/08 12:13:08;;;;;;;;;;;18.60;55.30;;;;;;5067794;28;42988;-75
2023/01/08 12:15:39;;;;;;;;;;;18.60;55.10;;;;;;5063405;28;42968;-74
2023/01/08 12:18:17;;;;;;;;;;;18.50;55.20;;;;;;5067157;28;43476;-74
2023/01/08 12:20:55;;;;;;;;;;;18.50;54.50;;;;;;5067579;28;59012;-73
2023/01/08 12:23:21;;;;;;;;;;;18.50;54.70;;;;;;5071359;28;43604;-73
2023/01/08 12:25:46;;;;;;;;;;;18.50;54.30;;;;;;5073249;28;42914;-73
2023/01/08 12:28:30;;;;;;;;;;;18.40;54.20;;;;;;5064356;28;43029;-74
2023/01/08 12:30:59;;;;;;;;;;;18.50;54.30;;;;;;5076070;28;42875;-73
2023/01/08 12:33:40;;;;;;;;;;;18.40;54.10;;;;;;5065353;28;43540;-73
2023/01/08 12:36:08;;;;;;;;;;;18.40;53.80;;;;;;5065058;28;42899;-73
2023/01/08 12:38:38;;;;;;;;;;;18.40;54.00;;;;;;5063553;28;43462;-74
2023/01/08 12:41:06;;;;;;;;;;;18.40;54.20;;;;;;5072479;28;42931;-74
2023/01/08 12:43:40;;;;;;;;;;;18.40;54.10;;;;;;5065535;28;43076;-74
2023/01/08 12:46:07;;;;;;;;;;;18.40;53.70;;;;;;5063935;28;43001;-73
2023/01/08 12:48:35;;;;;;;;;;;18.40;53.70;;;;;;5065686;28;42879;-74
2023/01/08 12:51:07;;;;;;;;;;;18.40;53.80;;;;;;5063982;28;43107;-74
2023/01/08 12:53:51;;;;;;;;;;;18.40;53.70;;;;;;5068883;28;43858;-75
2023/01/08 12:56:20;;;;;;;;;;;18.40;52.90;;;;;;5067441;28;43100;-75
2023/01/08 12:59:08;;;;;;;;;;;18.30;51.90;;;;;;5064916;28;43576;-74
2023/01/08 13:01:43;;;;;;;;;;;18.40;54.70;;;;;;5069222;28;43158;-75
2023/01/08 13:04:09;;;;;;;;;;;18.40;56.20;;;;;;5069628;28;43646;-72
2023/01/08 13:06:35;;;;;;;;;;;18.50;56.70;;;;;;5067352;28;43180;-74
2023/01/08 13:09:01;;;;;;;;;;;18.60;57.00;;;;;;5067546;28;43111;-72
2023/01/08 13:11:28;;;;;;;;;;;18.60;57.20;;;;;;5070209;28;42831;-72
2023/01/08 13:14:10;;;;;;;;;;;18.60;57.40;;;;;;5065287;28;43038;-72
2023/01/08 13:16:38;;;;;;;;;;;18.70;57.70;;;;;;5068067;28;42978;-73
2023/01/08 13:19:04;;;;;;;;;;;18.70;58.00;;;;;;5068993;28;42991;-72
2023/01/08 13:21:34;;;;;;;;;;;18.80;58.20;;;;;;5067822;28;43077;-72
2023/01/08 13:24:04;;;;;;;;;;;18.80;58.40;;;;;;5065289;28;43775;-70
2023/01/08 13:26:32;;;;;;;;;;;18.80;58.50;;;;;;5067245;27;43454;-74
2023/01/08 13:29:15;;;;;;;;;;;18.80;58.70;;;;;;5068661;28;43152;-75
2023/01/08 13:31:41;;;;;;;;;;;18.90;58.90;;;;;;5068993;28;43250;-74
2023/01/08 13:34:34;;;;;;;;;;;18.90;59.10;;;;;;5064769;28;43188;-73
2023/01/08 13:37:00;;;;;;;;;;;18.90;59.20;;;;;;5067859;28;43079;-74
2023/01/08 13:39:33;;;;;;;;;;;18.90;59.30;;;;;;5066824;28;43093;-72
2023/01/08 13:42:05;;;;;;;;;;;19.00;59.40;;;;;;5064519;28;43146;-76
2023/01/08 13:44:39;;;;;;;;;;;19.00;59.60;;;;;;5063314;27;43782;-76
2023/01/08 13:47:06;;;;;;;;;;;19.00;59.70;;;;;;5071378;28;42938;-76
2023/01/08 13:49:42;;;;;;;;;;;19.10;59.40;;;;;;5066685;28;43005;-75
2023/01/08 13:52:26;;;;;;;;;;;19.10;59.10;;;;;;5069213;28;43024;-78
2023/01/08 13:54:52;;;;;;;;;;;19.10;59.10;;;;;;5072379;28;43005;-77
2023/01/08 13:57:19;;;;;;;;;;;19.00;59.10;;;;;;5070481;28;43224;-76
2023/01/08 13:59:48;;;;;;;;;;;19.10;59.20;;;;;;5066636;28;43072;-76
2023/01/08 14:02:32;;;;;;;;;;;19.00;58.70;;;;;;5066074;28;42977;-78
2023/01/08 14:04:59;;;;;;;;;;;19.00;59.00;;;;;;5066645;28;43540;-75
2023/01/08 14:07:24;;;;;;;;;;;18.90;59.20;;;;;;5064618;28;43154;-78
2023/01/08 14:09:50;;;;;;;;;;;19.00;59.80;;;;;;5063356;28;43673;-77
2023/01/08 14:12:19;;;;;;;;;;;18.90;59.30;;;;;;5070066;28;42934;-76
2023/01/08 14:14:47;;;;;;;;;;;19.10;59.20;;;;;;5066946;27;43115;-76
2023/01/08 14:17:15;;;;;;;;;;;19.00;59.10;;;;;;5070181;28;43013;-76
2023/01/08 14:19:41;;;;;;;;;;;18.90;59.00;;;;;;5069676;28;43943;-77